sensor_id;sensor_type;location;lat;lon;timestamp;pressure;altitude;pressure_sealevel;temperature;humidity
49461;BME280;35355;49.198;-0.368;2023-10-09T00:02:11;101815.72;;;14.84;65.81
49461;BME280;35355;49.198;-0.368;2023-10-09T00:04:38;101813.25;;;14.87;65.74
49461;BME280;35355;49.198;-0.368;2023-10-09T00:07:07;101816.56;;;14.89;65.96
49461;BME280;35355;49.198;-0.368;2023-10-09T00:09:34;101815.53;;;14.96;65.99
49461;BME280;35355;49.198;-0.368;2023-10-09T00:12:20;101812.53;;;15.02;65.88
49461;BME280;35355;49.198;-0.368;2023-10-09T00:14:51;101809.56;;;15.09;65.88
49461;BME280;35355;49.198;-0.368;2023-10-09T00:17:33;101812.59;;;15.13;65.76
49461;BME280;35355;49.198;-0.368;2023-10-09T00:19:59;101815.91;;;15.15;65.44
49461;BME280;35355;49.198;-0.368;2023-10-09T00:22:42;101802.94;;;15.10;63.96
49461;BME280;35355;49.198;-0.368;2023-10-09T00:25:12;101803.75;;;15.05;65.13
49461;BME280;35355;49.198;-0.368;2023-10-09T00:27:41;101796.03;;;15.02;65.08
49461;BME280;35355;49.198;-0.368;2023-10-09T00:30:15;101802.38;;;15.03;65.58
49461;BME280;35355;49.198;-0.368;2023-10-09T00:32:46;101808.69;;;15.03;65.46
49461;BME280;35355;49.198;-0.368;2023-10-09T00:35:32;101800.41;;;14.98;65.28
49461;BME280;35355;49.198;-0.368;2023-10-09T00:38:03;101803.94;;;14.94;64.96
49461;BME280;35355;49.198;-0.368;2023-10-09T00:40:39;101801.13;;;14.83;64.82
49461;BME280;35355;49.198;-0.368;2023-10-09T00:43:11;101795.34;;;14.80;64.95
49461;BME280;35355;49.198;-0.368;2023-10-09T00:45:39;101794.47;;;14.74;65.11
49461;BME280;35355;49.198;-0.368;2023-10-09T00:48:07;101800.53;;;14.76;65.36
49461;BME280;35355;49.198;-0.368;2023-10-09T00:50:34;101791.16;;;14.72;65.17
49461;BME280;35355;49.198;-0.368;2023-10-09T00:53:01;101799.16;;;14.73;65.41
49461;BME280;35355;49.198;-0.368;2023-10-09T00:55:31;101798.31;;;14.73;65.51
49461;BME280;35355;49.198;-0.368;2023-10-09T00:58:12;101799.16;;;14.73;65.49
49461;BME280;35355;49.198;-0.368;2023-10-09T01:00:40;101802.44;;;14.76;65.83
49461;BME280;35355;49.198;-0.368;2023-10-09T01:03:09;101797.78;;;14.76;65.63
49461;BME280;35355;49.198;-0.368;2023-10-09T01:05:44;101794.47;;;14.74;65.23
49461;BME280;35355;49.198;-0.368;2023-10-09T01:08:40;101783.69;;;14.67;65.02
49461;BME280;35355;49.198;-0.368;2023-10-09T01:11:16;101789.41;;;14.61;64.67
49461;BME280;35355;49.198;-0.368;2023-10-09T01:13:47;101788.53;;;14.55;65.29
49461;BME280;35355;49.198;-0.368;2023-10-09T01:16:23;101792.63;;;14.52;64.80
49461;BME280;35355;49.198;-0.368;2023-10-09T01:18:55;101782.66;;;14.41;65.02
49461;BME280;35355;49.198;-0.368;2023-10-09T01:21:24;101789.78;;;14.42;65.24
49461;BME280;35355;49.198;-0.368;2023-10-09T01:23:53;101784.81;;;14.39;65.24
49461;BME280;35355;49.198;-0.368;2023-10-09T01:26:36;101781.19;;;14.33;65.15
49461;BME280;35355;49.198;-0.368;2023-10-09T01:29:19;101786.94;;;14.32;65.04
49461;BME280;35355;49.198;-0.368;2023-10-09T01:31:47;101789.97;;;14.30;65.76
49461;BME280;35355;49.198;-0.368;2023-10-09T01:34:25;101777.03;;;14.26;65.39
49461;BME280;35355;49.198;-0.368;2023-10-09T01:37:03;101779.22;;;14.24;65.79
49461;BME280;35355;49.198;-0.368;2023-10-09T01:39:30;101783.84;;;14.23;65.64
49461;BME280;35355;49.198;-0.368;2023-10-09T01:41:56;101776.72;;;14.22;65.85
49461;BME280;35355;49.198;-0.368;2023-10-09T01:44:31;101766.56;;;14.23;65.67
49461;BME280;35355;49.198;-0.368;2023-10-09T01:47:02;101761.84;;;14.18;65.76
49461;BME280;35355;49.198;-0.368;2023-10-09T01:49:35;101761.84;;;14.18;65.89
49461;BME280;35355;49.198;-0.368;2023-10-09T01:52:03;101765.94;;;14.15;65.62
49461;BME280;35355;49.198;-0.368;2023-10-09T01:54:42;101762.66;;;14.13;65.55
49461;BME280;35355;49.198;-0.368;2023-10-09T01:57:13;101759.00;;;14.08;65.79
49461;BME280;35355;49.198;-0.368;2023-10-09T01:59:43;101757.88;;;14.03;65.42
49461;BME280;35355;49.198;-0.368;2023-10-09T02:02:18;101768.56;;;14.00;65.50
49461;BME280;35355;49.198;-0.368;2023-10-09T02:05:01;101762.19;;;13.94;65.39
49461;BME280;35355;49.198;-0.368;2023-10-09T02:07:50;101762.97;;;13.90;65.47
49461;BME280;35355;49.198;-0.368;2023-10-09T02:10:19;101764.31;;;13.87;65.63
49461;BME280;35355;49.198;-0.368;2023-10-09T02:13:00;101760.16;;;13.84;65.79
49461;BME280;35355;49.198;-0.368;2023-10-09T02:15:31;101753.53;;;13.80;65.62
49461;BME280;35355;49.198;-0.368;2023-10-09T02:18:09;101753.53;;;13.80;65.77
49461;BME280;35355;49.198;-0.368;2023-10-09T02:23:27;101748.25;;;13.74;66.49
49461;BME280;35355;49.198;-0.368;2023-10-09T02:26:12;101748.53;;;13.77;66.00
49461;BME280;35355;49.198;-0.368;2023-10-09T02:28:50;101757.63;;;13.78;66.00
49461;BME280;35355;49.198;-0.368;2023-10-09T02:31:28;101752.66;;;13.75;66.03
49461;BME280;35355;49.198;-0.368;2023-10-09T02:34:14;101750.75;;;13.75;66.09
49461;BME280;35355;49.198;-0.368;2023-10-09T02:36:41;101747.44;;;13.73;66.10
49461;BME280;35355;49.198;-0.368;2023-10-09T02:39:08;101739.75;;;13.75;66.29
49461;BME280;35355;49.198;-0.368;2023-10-09T02:41:49;101743.06;;;13.77;66.57
49461;BME280;35355;49.198;-0.368;2023-10-09T02:44:15;101738.16;;;13.79;66.59
49461;BME280;35355;49.198;-0.368;2023-10-09T02:46:42;101735.44;;;13.84;66.50
49461;BME280;35355;49.198;-0.368;2023-10-09T02:49:10;101730.50;;;13.81;66.11
49461;BME280;35355;49.198;-0.368;2023-10-09T02:51:41;101728.84;;;13.80;66.03
49461;BME280;35355;49.198;-0.368;2023-10-09T02:54:08;101728.78;;;13.75;66.04
49461;BME280;35355;49.198;-0.368;2023-10-09T02:56:50;101730.97;;;13.73;65.78
49461;BME280;35355;49.198;-0.368;2023-10-09T02:59:31;101733.09;;;13.66;65.88
49461;BME280;35355;49.198;-0.368;2023-10-09T03:01:57;101723.44;;;13.63;66.01
49461;BME280;35355;49.198;-0.368;2023-10-09T03:04:25;101722.56;;;13.58;66.13
49461;BME280;35355;49.198;-0.368;2023-10-09T03:07:00;101723.09;;;13.55;65.88
49461;BME280;35355;49.198;-0.368;2023-10-09T03:09:26;101732.66;;;13.52;66.00
49461;BME280;35355;49.198;-0.368;2023-10-09T03:11:57;101722.16;;;13.44;65.73
49461;BME280;35355;49.198;-0.368;2023-10-09T03:14:33;101727.88;;;13.42;65.98
49461;BME280;35355;49.198;-0.368;2023-10-09T03:17:01;101726.75;;;13.38;65.91
49461;BME280;35355;49.198;-0.368;2023-10-09T03:19:28;101720.69;;;13.36;66.48
49461;BME280;35355;49.198;-0.368;2023-10-09T03:21:55;101728.16;;;13.41;66.89
49461;BME280;35355;49.198;-0.368;2023-10-09T03:24:26;101720.47;;;13.43;66.81
49461;BME280;35355;49.198;-0.368;2023-10-09T03:26:56;101724.63;;;13.45;66.75
49461;BME280;35355;49.198;-0.368;2023-10-09T03:29:23;101714.22;;;13.47;66.85
49461;BME280;35355;49.198;-0.368;2023-10-09T03:31:48;101714.47;;;13.46;66.47
49461;BME280;35355;49.198;-0.368;2023-10-09T03:34:16;101714.19;;;13.42;66.22
49461;BME280;35355;49.198;-0.368;2023-10-09T03:36:42;101711.94;;;13.39;66.50
49461;BME280;35355;49.198;-0.368;2023-10-09T03:39:12;101713.03;;;13.38;66.50
49461;BME280;35355;49.198;-0.368;2023-10-09T03:41:59;101715.22;;;13.36;66.36
49461;BME280;35355;49.198;-0.368;2023-10-09T03:44:25;101714.63;;;13.34;66.96
49461;BME280;35355;49.198;-0.368;2023-10-09T03:46:54;101709.72;;;13.36;67.12
49461;BME280;35355;49.198;-0.368;2023-10-09T03:49:19;101714.69;;;13.39;67.01
49461;BME280;35355;49.198;-0.368;2023-10-09T03:51:52;101725.16;;;13.42;67.20
49461;BME280;35355;49.198;-0.368;2023-10-09T03:54:18;101723.78;;;13.45;67.05
49461;BME280;35355;49.198;-0.368;2023-10-09T03:56:50;101716.66;;;13.44;66.58
49461;BME280;35355;49.198;-0.368;2023-10-09T03:59:17;101719.16;;;13.45;66.88
49461;BME280;35355;49.198;-0.368;2023-10-09T04:01:45;101717.81;;;13.48;67.01
49461;BME280;35355;49.198;-0.368;2023-10-09T04:04:11;101719.44;;;13.49;67.14
49461;BME280;35355;49.198;-0.368;2023-10-09T04:06:39;101720.84;;;13.51;67.00
49461;BME280;35355;49.198;-0.368;2023-10-09T04:09:08;101721.69;;;13.52;67.06
49461;BME280;35355;49.198;-0.368;2023-10-09T04:11:50;101717.59;;;13.55;67.03
49461;BME280;35355;49.198;-0.368;2023-10-09T04:14:35;101712.94;;;13.55;67.09
49461;BME280;35355;49.198;-0.368;2023-10-09T04:17:01;101723.41;;;13.58;66.66
49461;BME280;35355;49.198;-0.368;2023-10-09T04:19:45;101723.09;;;13.55;66.55
49461;BME280;35355;49.198;-0.368;2023-10-09T04:22:14;101720.28;;;13.49;66.45
49461;BME280;35355;49.198;-0.368;2023-10-09T04:24:52;101718.81;;;13.42;66.23
49461;BME280;35355;49.198;-0.368;2023-10-09T04:27:17;101721.25;;;13.38;66.42
49461;BME280;35355;49.198;-0.368;2023-10-09T04:29:54;101718.91;;;13.30;66.05
49461;BME280;35355;49.198;-0.368;2023-10-09T04:32:20;101719.94;;;13.24;66.05
49461;BME280;35355;49.198;-0.368;2023-10-09T04:34:50;101718.75;;;13.14;66.23
49461;BME280;35355;49.198;-0.368;2023-10-09T04:37:36;101720.34;;;13.10;66.09
49461;BME280;35355;49.198;-0.368;2023-10-09T04:40:04;101720.28;;;13.05;66.40
49461;BME280;35355;49.198;-0.368;2023-10-09T04:42:58;101719.44;;;13.05;66.72
49461;BME280;35355;49.198;-0.368;2023-10-09T04:45:24;101717.47;;;13.00;66.64
49461;BME280;35355;49.198;-0.368;2023-10-09T04:48:09;101714.97;;;12.98;66.34
49461;BME280;35355;49.198;-0.368;2023-10-09T04:50:35;101719.03;;;12.96;66.50
49461;BME280;35355;49.198;-0.368;2023-10-09T04:53:02;101718.47;;;12.94;66.31
49461;BME280;35355;49.198;-0.368;2023-10-09T04:55:43;101721.47;;;12.92;66.71
49461;BME280;35355;49.198;-0.368;2023-10-09T04:58:21;101728.38;;;12.95;66.52
49461;BME280;35355;49.198;-0.368;2023-10-09T05:00:52;101718.75;;;12.92;66.82
49461;BME280;35355;49.198;-0.368;2023-10-09T05:03:23;101723.66;;;12.90;66.55
49461;BME280;35355;49.198;-0.368;2023-10-09T05:06:10;101721.47;;;12.92;66.71
49461;BME280;35355;49.198;-0.368;2023-10-09T05:08:55;101717.91;;;12.92;66.83
49461;BME280;35355;49.198;-0.368;2023-10-09T05:11:22;101726.69;;;12.94;66.88
49461;BME280;35355;49.198;-0.368;2023-10-09T05:14:19;101717.91;;;12.92;67.09
49461;BME280;35355;49.198;-0.368;2023-10-09T05:16:52;101726.75;;;12.99;66.70
49461;BME280;35355;49.198;-0.368;2023-10-09T05:19:23;101732.25;;;12.99;66.74
49461;BME280;35355;49.198;-0.368;2023-10-09T05:22:08;101733.84;;;12.95;66.59
49461;BME280;35355;49.198;-0.368;2023-10-09T05:24:35;101737.41;;;12.95;66.51
49461;BME280;35355;49.198;-0.368;2023-10-09T05:27:12;101742.06;;;12.95;66.68
49461;BME280;35355;49.198;-0.368;2023-10-09T05:29:44;101734.94;;;12.94;66.44
49461;BME280;35355;49.198;-0.368;2023-10-09T05:32:25;101735.44;;;12.91;66.65
49461;BME280;35355;49.198;-0.368;2023-10-09T05:34:55;101735.69;;;12.89;66.95
49461;BME280;35355;49.198;-0.368;2023-10-09T05:37:27;101735.94;;;12.88;66.71
49461;BME280;35355;49.198;-0.368;2023-10-09T05:40:01;101735.34;;;12.86;66.91
49461;BME280;35355;49.198;-0.368;2023-10-09T05:42:36;101741.09;;;12.84;66.38
49461;BME280;35355;49.198;-0.368;2023-10-09T05:45:04;101742.44;;;12.81;66.43
49461;BME280;35355;49.198;-0.368;2023-10-09T05:50:28;101761.22;;;12.73;66.45
49461;BME280;35355;49.198;-0.368;2023-10-09T05:53:03;101745.19;;;12.64;66.40
49461;BME280;35355;49.198;-0.368;2023-10-09T05:55:31;101737.72;;;12.60;66.42
49461;BME280;35355;49.198;-0.368;2023-10-09T05:58:16;101755.81;;;12.61;66.42
49461;BME280;35355;49.198;-0.368;2023-10-09T06:01:00;101743.63;;;12.52;66.50
49461;BME280;35355;49.198;-0.368;2023-10-09T06:03:44;101762.88;;;12.57;66.66
49461;BME280;35355;49.198;-0.368;2023-10-09T06:06:28;101758.47;;;12.56;66.59
49461;BME280;35355;49.198;-0.368;2023-10-09T06:09:09;101750.25;;;12.56;66.93
49461;BME280;35355;49.198;-0.368;2023-10-09T06:11:44;101761.81;;;12.58;66.74
49461;BME280;35355;49.198;-0.368;2023-10-09T06:14:23;101760.41;;;12.55;66.83
49461;BME280;35355;49.198;-0.368;2023-10-09T06:16:58;101765.88;;;12.55;66.94
49461;BME280;35355;49.198;-0.368;2023-10-09T06:19:27;101763.94;;;12.56;67.15
49461;BME280;35355;49.198;-0.368;2023-10-09T06:21:56;101763.94;;;12.56;67.09
49461;BME280;35355;49.198;-0.368;2023-10-09T06:24:40;101768.34;;;12.57;67.15
49461;BME280;35355;49.198;-0.368;2023-10-09T06:27:18;101767.84;;;12.60;67.75
49461;BME280;35355;49.198;-0.368;2023-10-09T06:29:58;101767.91;;;12.65;67.62
49461;BME280;35355;49.198;-0.368;2023-10-09T06:32:49;101763.03;;;12.67;67.88
49461;BME280;35355;49.198;-0.368;2023-10-09T06:35:20;101758.38;;;12.68;67.38
49461;BME280;35355;49.198;-0.368;2023-10-09T06:37:51;101770.19;;;12.68;67.63
49461;BME280;35355;49.198;-0.368;2023-10-09T06:40:37;101767.00;;;12.76;67.79
49461;BME280;35355;49.198;-0.368;2023-10-09T06:43:31;101769.84;;;12.81;67.82
49461;BME280;35355;49.198;-0.368;2023-10-09T06:46:02;101770.66;;;12.82;67.40
49461;BME280;35355;49.198;-0.368;2023-10-09T06:48:45;101778.06;;;12.81;66.83
49461;BME280;35355;49.198;-0.368;2023-10-09T06:51:12;101773.72;;;12.86;67.71
49461;BME280;35355;49.198;-0.368;2023-10-09T06:53:40;101780.09;;;12.91;67.79
49461;BME280;35355;49.198;-0.368;2023-10-09T06:56:24;101778.25;;;12.97;67.72
49461;BME280;35355;49.198;-0.368;2023-10-09T07:01:25;101771.84;;;13.08;68.02
49461;BME280;35355;49.198;-0.368;2023-10-09T07:03:58;101776.88;;;13.16;67.95
49461;BME280;35355;49.198;-0.368;2023-10-09T07:06:36;101784.09;;;13.23;68.13
49461;BME280;35355;49.198;-0.368;2023-10-09T07:09:02;101785.84;;;13.29;67.84
49461;BME280;35355;49.198;-0.368;2023-10-09T07:14:20;101785.47;;;13.42;67.77
49461;BME280;35355;49.198;-0.368;2023-10-09T07:17:05;101784.47;;;13.48;67.41
49461;BME280;35355;49.198;-0.368;2023-10-09T07:19:51;101778.44;;;13.51;67.79
49461;BME280;35355;49.198;-0.368;2023-10-09T07:22:17;101791.13;;;13.58;67.81
49461;BME280;35355;49.198;-0.368;2023-10-09T07:24:49;101795.34;;;13.65;67.73
49461;BME280;35355;49.198;-0.368;2023-10-09T07:27:20;101787.47;;;13.74;67.54
49461;BME280;35355;49.198;-0.368;2023-10-09T07:30:10;101788.97;;;13.82;67.48
49461;BME280;35355;49.198;-0.368;2023-10-09T07:32:55;101779.09;;;13.86;67.36
49461;BME280;35355;49.198;-0.368;2023-10-09T07:35:21;101784.41;;;13.93;67.26
49461;BME280;35355;49.198;-0.368;2023-10-09T07:38:06;101785.03;;;14.00;67.11
49461;BME280;35355;49.198;-0.368;2023-10-09T07:40:38;101780.16;;;14.07;67.19
49461;BME280;35355;49.198;-0.368;2023-10-09T07:43:24;101789.56;;;14.16;67.15
49461;BME280;35355;49.198;-0.368;2023-10-09T07:46:14;101788.00;;;14.26;67.00
49461;BME280;35355;49.198;-0.368;2023-10-09T07:49:05;101782.31;;;14.32;66.87
49461;BME280;35355;49.198;-0.368;2023-10-09T07:51:38;101791.47;;;14.43;66.67
49461;BME280;35355;49.198;-0.368;2023-10-09T07:54:04;101787.13;;;14.52;66.58
49461;BME280;35355;49.198;-0.368;2023-10-09T07:59:07;101786.72;;;14.66;66.23
49461;BME280;35355;49.198;-0.368;2023-10-09T08:01:56;101782.94;;;14.72;66.22
49461;BME280;35355;49.198;-0.368;2023-10-09T08:04:28;101790.66;;;14.80;65.98
49461;BME280;35355;49.198;-0.368;2023-10-09T08:07:12;101800.31;;;14.88;66.05
49461;BME280;35355;49.198;-0.368;2023-10-09T08:10:06;101797.91;;;14.97;65.97
49461;BME280;35355;49.198;-0.368;2023-10-09T08:12:39;101804.84;;;15.04;65.69
49461;BME280;35355;49.198;-0.368;2023-10-09T08:15:24;101811.22;;;15.15;65.63
49461;BME280;35355;49.198;-0.368;2023-10-09T08:18:13;101801.94;;;15.26;65.34
49461;BME280;35355;49.198;-0.368;2023-10-09T08:20:53;101798.41;;;15.36;65.50
49461;BME280;35355;49.198;-0.368;2023-10-09T08:23:27;101800.66;;;15.50;65.64
49461;BME280;35355;49.198;-0.368;2023-10-09T08:26:18;101797.41;;;15.63;65.50
49461;BME280;35355;49.198;-0.368;2023-10-09T08:28:58;101800.50;;;15.77;65.34
49461;BME280;35355;49.198;-0.368;2023-10-09T08:31:47;101805.78;;;15.94;65.31
49461;BME280;35355;49.198;-0.368;2023-10-09T08:34:22;101801.97;;;16.05;65.02
49461;BME280;35355;49.198;-0.368;2023-10-09T08:36:52;101811.63;;;16.18;64.94
49461;BME280;35355;49.198;-0.368;2023-10-09T08:39:22;101800.63;;;16.28;64.91
49461;BME280;35355;49.198;-0.368;2023-10-09T08:41:54;101807.78;;;16.45;64.45
49461;BME280;35355;49.198;-0.368;2023-10-09T08:44:24;101799.53;;;16.55;64.47
49461;BME280;35355;49.198;-0.368;2023-10-09T08:46:59;101804.47;;;16.63;64.13
49461;BME280;35355;49.198;-0.368;2023-10-09T08:49:26;101806.66;;;16.66;63.77
49461;BME280;35355;49.198;-0.368;2023-10-09T08:51:51;101807.50;;;16.72;63.99
49461;BME280;35355;49.198;-0.368;2023-10-09T08:54:18;101803.09;;;16.76;64.14
49461;BME280;35355;49.198;-0.368;2023-10-09T08:56:47;101803.06;;;16.87;64.00
49461;BME280;35355;49.198;-0.368;2023-10-09T08:59:17;101810.25;;;16.93;63.83
49461;BME280;35355;49.198;-0.368;2023-10-09T09:01:46;101807.75;;;17.01;63.61
49461;BME280;35355;49.198;-0.368;2023-10-09T09:04:36;101808.28;;;17.09;63.82
49461;BME280;35355;49.198;-0.368;2023-10-09T09:07:04;101805.78;;;17.17;63.40
49461;BME280;35355;49.198;-0.368;2023-10-09T09:09:31;101809.38;;;17.23;63.39
49461;BME280;35355;49.198;-0.368;2023-10-09T09:11:59;101811.25;;;17.33;63.43
49461;BME280;35355;49.198;-0.368;2023-10-09T09:14:48;101804.06;;;17.37;63.68
49461;BME280;35355;49.198;-0.368;2023-10-09T09:17:22;101803.22;;;17.42;63.31
49461;BME280;35355;49.198;-0.368;2023-10-09T09:19:55;101810.66;;;17.46;63.07
49461;BME280;35355;49.198;-0.368;2023-10-09T09:22:23;101810.63;;;17.51;62.95
49461;BME280;35355;49.198;-0.368;2023-10-09T09:24:58;101810.88;;;17.55;63.08
49461;BME280;35355;49.198;-0.368;2023-10-09T09:27:45;101815.84;;;17.58;63.05
49461;BME280;35355;49.198;-0.368;2023-10-09T09:30:25;101809.78;;;17.61;63.10
49461;BME280;35355;49.198;-0.368;2023-10-09T09:32:57;101825.78;;;17.64;62.92
49461;BME280;35355;49.198;-0.368;2023-10-09T09:35:55;101814.97;;;17.68;63.08
49461;BME280;35355;49.198;-0.368;2023-10-09T09:38:23;101831.78;;;17.71;62.85
49461;BME280;35355;49.198;-0.368;2023-10-09T09:40:52;101820.19;;;17.75;62.75
49461;BME280;35355;49.198;-0.368;2023-10-09T09:43:20;101831.75;;;17.82;62.57
49461;BME280;35355;49.198;-0.368;2023-10-09T09:45:48;101821.78;;;17.86;62.82
49461;BME280;35355;49.198;-0.368;2023-10-09T09:48:15;101820.13;;;17.90;62.77
49461;BME280;35355;49.198;-0.368;2023-10-09T09:50:43;101820.66;;;17.97;62.64
49461;BME280;35355;49.198;-0.368;2023-10-09T09:53:19;101816.50;;;18.00;63.05
49461;BME280;35355;49.198;-0.368;2023-10-09T09:55:52;101828.88;;;18.08;62.66
49461;BME280;35355;49.198;-0.368;2023-10-09T09:58:26;101832.72;;;18.12;62.85
49461;BME280;35355;49.198;-0.368;2023-10-09T10:01:14;101830.47;;;18.19;62.87
49461;BME280;35355;49.198;-0.368;2023-10-09T10:03:58;101838.47;;;18.20;62.73
49461;BME280;35355;49.198;-0.368;2023-10-09T10:06:28;101841.47;;;18.29;62.72
49461;BME280;35355;49.198;-0.368;2023-10-09T10:08:54;101840.88;;;18.32;63.03
49461;BME280;35355;49.198;-0.368;2023-10-09T10:11:45;101843.31;;;18.39;63.20
49461;BME280;35355;49.198;-0.368;2023-10-09T10:14:14;101837.50;;;18.40;63.02
49461;BME280;35355;49.198;-0.368;2023-10-09T10:17:06;101831.94;;;18.46;62.98
49461;BME280;35355;49.198;-0.368;2023-10-09T10:20:06;101832.16;;;18.49;63.24
49461;BME280;35355;49.198;-0.368;2023-10-09T10:22:40;101842.34;;;18.54;62.88
49461;BME280;35355;49.198;-0.368;2023-10-09T10:25:34;101833.75;;;18.61;63.30
49461;BME280;35355;49.198;-0.368;2023-10-09T10:28:20;101832.06;;;18.65;63.11
49461;BME280;35355;49.198;-0.368;2023-10-09T10:31:08;101838.91;;;18.72;62.72
49461;BME280;35355;49.198;-0.368;2023-10-09T10:36:23;101837.16;;;18.82;62.58
49461;BME280;35355;49.198;-0.368;2023-10-09T10:39:06;101834.91;;;18.89;62.91
49461;BME280;35355;49.198;-0.368;2023-10-09T10:41:57;101834.84;;;18.94;62.96
49461;BME280;35355;49.198;-0.368;2023-10-09T10:44:27;101831.50;;;18.97;63.19
49461;BME280;35355;49.198;-0.368;2023-10-09T10:47:00;101832.84;;;19.00;63.04
49461;BME280;35355;49.198;-0.368;2023-10-09T10:49:28;101832.81;;;19.05;62.94
49461;BME280;35355;49.198;-0.368;2023-10-09T10:52:09;101831.13;;;19.09;62.83
49461;BME280;35355;49.198;-0.368;2023-10-09T10:54:44;101828.28;;;19.14;62.87
49461;BME280;35355;49.198;-0.368;2023-10-09T10:57:17;101818.56;;;19.17;62.86
49461;BME280;35355;49.198;-0.368;2023-10-09T10:59:56;101835.94;;;19.22;62.71
49461;BME280;35355;49.198;-0.368;2023-10-09T11:02:41;101830.63;;;19.26;61.90
49461;BME280;35355;49.198;-0.368;2023-10-09T11:05:08;101824.75;;;19.33;61.47
49461;BME280;35355;49.198;-0.368;2023-10-09T11:07:40;101828.56;;;19.37;61.48
49461;BME280;35355;49.198;-0.368;2023-10-09T11:10:06;101824.94;;;19.41;61.50
49461;BME280;35355;49.198;-0.368;2023-10-09T11:12:42;101825.69;;;19.47;61.58
49461;BME280;35355;49.198;-0.368;2023-10-09T11:15:11;101818.44;;;19.51;60.51
49461;BME280;35355;49.198;-0.368;2023-10-09T11:18:07;101813.97;;;19.55;60.66
49461;BME280;35355;49.198;-0.368;2023-10-09T11:20:34;101808.34;;;19.60;58.63
49461;BME280;35355;49.198;-0.368;2023-10-09T11:23:01;101816.28;;;19.67;57.83
49461;BME280;35355;49.198;-0.368;2023-10-09T11:25:45;101808.19;;;19.71;57.64
49461;BME280;35355;49.198;-0.368;2023-10-09T11:28:22;101810.69;;;19.72;57.05
49461;BME280;35355;49.198;-0.368;2023-10-09T11:31:11;101817.84;;;19.78;57.85
49461;BME280;35355;49.198;-0.368;2023-10-09T11:33:46;101817.75;;;19.84;56.27
49461;BME280;35355;49.198;-0.368;2023-10-09T11:36:15;101802.19;;;19.88;54.38
49461;BME280;35355;49.198;-0.368;2023-10-09T11:38:41;101802.41;;;19.91;53.18
49461;BME280;35355;49.198;-0.368;2023-10-09T11:41:17;101802.66;;;19.95;53.30
49461;BME280;35355;49.198;-0.368;2023-10-09T11:43:52;101805.13;;;19.96;51.55
49461;BME280;35355;49.198;-0.368;2023-10-09T11:46:22;101792.09;;;19.97;49.12
49461;BME280;35355;49.198;-0.368;2023-10-09T11:49:23;101791.56;;;19.95;49.17
49461;BME280;35355;49.198;-0.368;2023-10-09T11:51:52;101798.97;;;20.00;48.15
49461;BME280;35355;49.198;-0.368;2023-10-09T11:54:52;101788.72;;;20.00;48.74
49461;BME280;35355;49.198;-0.368;2023-10-09T11:57:22;101788.94;;;20.04;48.35
49461;BME280;35355;49.198;-0.368;2023-10-09T11:59:59;101785.88;;;20.05;47.63
49461;BME280;35355;49.198;-0.368;2023-10-09T12:02:25;101790.22;;;20.11;47.65
49461;BME280;35355;49.198;-0.368;2023-10-09T12:04:51;101775.75;;;20.14;47.54
49461;BME280;35355;49.198;-0.368;2023-10-09T12:07:19;101768.47;;;20.19;47.37
49461;BME280;35355;49.198;-0.368;2023-10-09T12:09:46;101766.16;;;20.26;47.54
49461;BME280;35355;49.198;-0.368;2023-10-09T12:12:13;101761.66;;;20.30;47.42
49461;BME280;35355;49.198;-0.368;2023-10-09T12:14:38;101754.34;;;20.34;47.56
49461;BME280;35355;49.198;-0.368;2023-10-09T12:17:07;101758.78;;;20.35;46.89
49461;BME280;35355;49.198;-0.368;2023-10-09T12:19:39;101747.88;;;20.39;47.57
49461;BME280;35355;49.198;-0.368;2023-10-09T12:22:07;101739.81;;;20.42;46.33
49461;BME280;35355;49.198;-0.368;2023-10-09T12:24:38;101742.78;;;20.46;46.15
49461;BME280;35355;49.198;-0.368;2023-10-09T12:27:08;101737.47;;;20.49;45.63
49461;BME280;35355;49.198;-0.368;2023-10-09T12:29:37;101740.72;;;20.51;45.53
49461;BME280;35355;49.198;-0.368;2023-10-09T12:32:03;101736.31;;;20.50;45.55
49461;BME280;35355;49.198;-0.368;2023-10-09T12:34:29;101730.25;;;20.48;45.15
49461;BME280;35355;49.198;-0.368;2023-10-09T12:36:58;101744.13;;;20.48;45.50
49461;BME280;35355;49.198;-0.368;2023-10-09T12:39:27;101733.63;;;20.45;44.26
49461;BME280;35355;49.198;-0.368;2023-10-09T12:42:01;101737.53;;;20.44;44.93
49461;BME280;35355;49.198;-0.368;2023-10-09T12:44:33;101738.69;;;20.43;44.58
49461;BME280;35355;49.198;-0.368;2023-10-09T12:47:07;101731.25;;;20.39;45.39
49461;BME280;35355;49.198;-0.368;2023-10-09T12:49:33;101720.25;;;20.33;44.90
49461;BME280;35355;49.198;-0.368;2023-10-09T12:51:58;101727.34;;;20.40;45.26
49461;BME280;35355;49.198;-0.368;2023-10-09T12:54:27;101720.25;;;20.33;45.34
49461;BME280;35355;49.198;-0.368;2023-10-09T12:56:56;101726.00;;;20.37;44.48
49461;BME280;35355;49.198;-0.368;2023-10-09T12:59:23;101705.78;;;20.37;44.09
49461;BME280;35355;49.198;-0.368;2023-10-09T13:01:49;101717.91;;;20.41;43.45
49461;BME280;35355;49.198;-0.368;2023-10-09T13:04:25;101696.97;;;20.35;44.11
49461;BME280;35355;49.198;-0.368;2023-10-09T13:06:57;101702.72;;;20.38;44.37
49461;BME280;35355;49.198;-0.368;2023-10-09T13:09:27;101708.19;;;20.43;43.53
49461;BME280;35355;49.198;-0.368;2023-10-09T13:12:08;101698.19;;;20.42;43.62
49461;BME280;35355;49.198;-0.368;2023-10-09T13:14:37;101695.84;;;20.49;42.98
49461;BME280;35355;49.198;-0.368;2023-10-09T13:17:05;101700.25;;;20.50;42.75
49461;BME280;35355;49.198;-0.368;2023-10-09T13:19:35;101698.00;;;20.53;43.31
49461;BME280;35355;49.198;-0.368;2023-10-09T13:22:03;101705.72;;;20.56;43.03
49461;BME280;35355;49.198;-0.368;2023-10-09T13:24:38;101709.00;;;20.58;42.71
49461;BME280;35355;49.198;-0.368;2023-10-09T13:27:04;101702.34;;;20.59;42.32
49461;BME280;35355;49.198;-0.368;2023-10-09T13:29:30;101691.75;;;20.61;42.49
49461;BME280;35355;49.198;-0.368;2023-10-09T13:31:59;101685.06;;;20.62;42.92
49461;BME280;35355;49.198;-0.368;2023-10-09T13:34:28;101687.78;;;20.67;42.40